createdAt,value
2022-08-28T00:01:02.788Z,13.80
2022-08-28T00:03:32.444Z,13.90
2022-08-28T00:06:00.445Z,14.70
2022-08-28T00:08:30.637Z,15.10
2022-08-28T00:10:58.558Z,13.80
2022-08-28T00:13:26.955Z,15.00
2022-08-28T00:16:00.956Z,14.80
2022-08-28T00:18:31.479Z,14.40
2022-08-28T00:21:00.200Z,14.20
2022-08-28T00:23:42.319Z,14.00
2022-08-28T00:26:32.346Z,14.30
2022-08-28T00:29:00.363Z,13.80
2022-08-28T00:31:28.336Z,14.50
2022-08-28T00:33:56.323Z,13.50
2022-08-28T00:36:24.187Z,13.30
2022-08-28T00:38:52.035Z,14.20
2022-08-28T00:41:24.887Z,13.90
2022-08-28T00:44:10.371Z,12.00
2022-08-28T00:46:39.570Z,13.70
2022-08-28T00:49:07.560Z,13.00
2022-08-28T00:51:55.774Z,12.90
2022-08-28T00:54:25.240Z,13.20
2022-08-28T00:56:54.998Z,13.40
2022-08-28T00:59:25.356Z,13.40
2022-08-28T01:01:57.326Z,14.00
2022-08-28T01:04:29.217Z,13.10
2022-08-28T01:06:57.517Z,14.00
2022-08-28T01:09:29.729Z,13.80
2022-08-28T01:12:16.688Z,14.30
2022-08-28T01:14:48.930Z,13.10
2022-08-28T01:17:18.487Z,13.50
2022-08-28T01:19:57.228Z,13.40
2022-08-28T01:22:41.607Z,13.70
2022-08-28T01:25:15.145Z,14.50
2022-08-28T01:27:43.049Z,14.10
2022-08-28T01:30:15.829Z,14.10
2022-08-28T01:32:54.576Z,14.00
2022-08-28T01:35:32.006Z,13.90
2022-08-28T01:38:01.242Z,13.80
2022-08-28T01:40:44.585Z,14.10
2022-08-28T01:43:19.894Z,15.40
2022-08-28T01:45:53.027Z,13.70
2022-08-28T01:48:25.157Z,14.00
2022-08-28T01:50:53.731Z,14.20
2022-08-28T01:53:25.803Z,14.40
2022-08-28T01:56:04.741Z,13.80
2022-08-28T01:58:37.876Z,14.00
2022-08-28T02:01:12.330Z,13.20
2022-08-28T02:03:43.336Z,13.40
2022-08-28T02:06:13.724Z,13.30
2022-08-28T02:08:41.681Z,12.90
2022-08-28T02:11:10.497Z,14.20
2022-08-28T02:13:40.387Z,12.90
2022-08-28T02:16:10.643Z,14.30
2022-08-28T02:18:38.909Z,14.10
2022-08-28T02:21:09.021Z,13.80
2022-08-28T02:23:43.790Z,13.20
2022-08-28T02:26:13.543Z,13.00
2022-08-28T02:28:42.463Z,13.90
2022-08-28T02:31:11.238Z,13.60
2022-08-28T02:33:44.872Z,13.70
2022-08-28T02:36:15.251Z,15.10
2022-08-28T02:39:05.260Z,14.00
2022-08-28T02:41:59.773Z,14.10
2022-08-28T02:44:27.840Z,14.60
2022-08-28T02:46:55.630Z,14.80
2022-08-28T02:49:36.067Z,14.30
2022-08-28T02:52:06.946Z,14.80
2022-08-28T02:54:35.386Z,15.10
2022-08-28T02:57:04.017Z,15.40
2022-08-28T02:59:32.257Z,16.00
2022-08-28T03:02:01.014Z,14.90
2022-08-28T03:04:28.862Z,16.10
2022-08-28T03:06:56.659Z,15.10
2022-08-28T03:09:24.694Z,15.20
2022-08-28T03:11:54.099Z,15.60
2022-08-28T03:14:22.760Z,15.80
2022-08-28T03:16:50.701Z,15.80
2022-08-28T03:19:50.648Z,15.70
2022-08-28T03:22:40.044Z,16.10
2022-08-28T03:25:08.837Z,15.10
2022-08-28T03:27:38.597Z,16.60
2022-08-28T03:30:09.251Z,16.90
2022-08-28T03:32:37.521Z,16.00
2022-08-28T03:35:11.026Z,16.60
2022-08-28T03:37:40.250Z,17.00
2022-08-28T03:40:10.556Z,16.10
2022-08-28T03:42:38.954Z,16.90
2022-08-28T03:45:12.390Z,17.10
2022-08-28T03:47:41.973Z,17.00
2022-08-28T03:50:12.501Z,17.20
2022-08-28T03:52:41.367Z,17.40
2022-08-28T03:55:12.383Z,16.70
2022-08-28T03:57:40.780Z,18.10
2022-08-28T04:00:12.688Z,18.60
2022-08-28T04:02:42.662Z,18.00
2022-08-28T04:05:11.503Z,17.60
2022-08-28T04:07:40.335Z,17.80
2022-08-28T04:10:09.182Z,17.10
2022-08-28T04:12:37.592Z,19.00
2022-08-28T04:15:07.253Z,18.10
2022-08-28T04:17:39.258Z,17.10
2022-08-28T04:20:11.183Z,18.60
2022-08-28T04:22:40.127Z,19.10
2022-08-28T04:25:11.628Z,17.90
2022-08-28T04:27:40.271Z,18.70
2022-08-28T04:30:09.925Z,18.60
2022-08-28T04:32:39.487Z,18.80
2022-08-28T04:35:11.316Z,18.80
2022-08-28T04:37:40.486Z,20.20
2022-08-28T04:40:11.064Z,20.00
2022-08-28T04:42:40.249Z,19.10
2022-08-28T04:45:08.556Z,20.20
2022-08-28T04:47:39.565Z,20.10
2022-08-28T04:50:08.685Z,19.30
2022-08-28T04:52:36.733Z,20.00
2022-08-28T04:55:05.554Z,19.00
2022-08-28T04:57:36.427Z,16.90
2022-08-28T05:00:07.792Z,19.20
2022-08-28T05:02:43.442Z,19.60
2022-08-28T05:10:08.288Z,19.80
2022-08-28T05:12:36.913Z,18.50
2022-08-28T05:15:05.951Z,18.30
2022-08-28T05:17:33.937Z,17.80
2022-08-28T05:20:02.332Z,18.20
2022-08-28T05:22:32.636Z,18.90
2022-08-28T05:27:30.805Z,19.10
2022-08-28T05:30:01.994Z,19.10
2022-08-28T05:32:30.351Z,18.70
2022-08-28T05:34:58.720Z,17.60
2022-08-28T05:37:37.043Z,17.70
2022-08-28T05:40:06.708Z,17.20
2022-08-28T05:42:38.876Z,17.50
2022-08-28T05:45:08.227Z,16.80
2022-08-28T05:47:36.267Z,17.50
2022-08-28T05:50:06.319Z,17.60
2022-08-28T05:52:38.808Z,17.80
2022-08-28T05:55:18.096Z,17.20
2022-08-28T05:57:48.796Z,16.50
2022-08-28T06:00:18.616Z,17.10
2022-08-28T06:02:46.648Z,17.50
2022-08-28T06:05:16.521Z,17.60
2022-08-28T06:07:44.431Z,17.20
2022-08-28T06:10:12.392Z,15.90
2022-08-28T06:12:43.134Z,17.00
2022-08-28T06:15:21.875Z,17.40
2022-08-28T06:17:49.928Z,16.60
2022-08-28T06:20:18.092Z,16.30
2022-08-28T06:22:46.097Z,15.40
2022-08-28T06:25:14.449Z,17.00
2022-08-28T06:27:43.056Z,16.00
2022-08-28T06:30:12.873Z,16.30
2022-08-28T06:32:41.071Z,16.00
2022-08-28T06:35:19.421Z,15.70
2022-08-28T06:38:01.410Z,14.80
2022-08-28T06:40:51.106Z,15.30
2022-08-28T06:43:27.774Z,14.90
2022-08-28T06:45:58.146Z,16.70
2022-08-28T06:48:28.647Z,17.00
2022-08-28T06:50:57.950Z,17.20
2022-08-28T06:53:29.558Z,16.00
2022-08-28T06:56:26.278Z,15.70
2022-08-28T06:58:58.148Z,14.70
2022-08-28T07:01:37.754Z,16.00
2022-08-28T07:04:10.181Z,15.20
2022-08-28T07:09:13.924Z,15.40
2022-08-28T07:11:49.031Z,14.40
2022-08-28T07:14:17.389Z,15.20
2022-08-28T07:16:46.036Z,13.80
2022-08-28T07:19:14.583Z,14.20
2022-08-28T07:21:49.804Z,14.00
2022-08-28T07:24:18.206Z,14.70
2022-08-28T07:26:47.950Z,13.50
2022-08-28T07:29:17.746Z,13.80
2022-08-28T07:31:49.659Z,14.10
2022-08-28T07:34:20.595Z,13.20
2022-08-28T07:36:51.906Z,13.40
2022-08-28T07:39:20.547Z,12.90
2022-08-28T07:41:48.739Z,14.30
2022-08-28T07:44:38.437Z,13.30
2022-08-28T07:47:08.658Z,13.20
2022-08-28T07:49:36.650Z,14.60
2022-08-28T07:52:07.862Z,14.20
2022-08-28T07:54:40.572Z,15.50
2022-08-28T07:57:10.384Z,15.00
2022-08-28T07:59:39.987Z,12.90
2022-08-28T08:02:12.053Z,13.10
2022-08-28T08:04:40.813Z,12.90
2022-08-28T08:07:13.041Z,12.30
2022-08-28T08:09:43.728Z,12.10
2022-08-28T08:12:13.766Z,12.50
2022-08-28T08:14:44.163Z,13.20
2022-08-28T08:17:12.249Z,11.70
2022-08-28T08:19:41.056Z,12.90
2022-08-28T08:22:09.084Z,13.10
2022-08-28T08:24:37.456Z,11.50
2022-08-28T08:27:10.256Z,12.10
2022-08-28T08:29:39.185Z,12.00
2022-08-28T08:32:10.761Z,11.50
2022-08-28T08:34:42.428Z,11.60
2022-08-28T08:37:12.811Z,11.60
2022-08-28T08:39:42.702Z,11.70
2022-08-28T08:42:32.779Z,9.80
2022-08-28T08:45:04.388Z,11.00
2022-08-28T08:47:54.124Z,11.10
2022-08-28T08:50:30.037Z,9.70
2022-08-28T08:53:28.771Z,11.00
2022-08-28T08:55:58.303Z,10.60
2022-08-28T08:58:45.768Z,10.30
2022-08-28T09:02:06.752Z,11.10
2022-08-28T09:05:08.205Z,10.20
2022-08-28T09:07:59.665Z,12.00
2022-08-28T09:10:39.699Z,10.60
2022-08-28T09:13:50.330Z,10.20
2022-08-28T09:16:32.296Z,10.50
2022-08-28T09:19:01.064Z,10.70
2022-08-28T09:21:34.538Z,9.50
2022-08-28T09:24:10.978Z,10.30
2022-08-28T09:26:40.599Z,10.60
2022-08-28T09:29:17.248Z,10.30
2022-08-28T09:31:45.464Z,10.20
2022-08-28T09:34:24.142Z,9.90
2022-08-28T09:36:54.909Z,9.60
2022-08-28T09:39:36.032Z,10.90
2022-08-28T09:42:45.404Z,10.80
2022-08-28T09:45:21.363Z,10.20
2022-08-28T09:47:58.367Z,10.20
2022-08-28T09:50:38.841Z,10.30
2022-08-28T09:53:09.965Z,10.30
2022-08-28T09:56:11.185Z,11.00
2022-08-28T09:59:15.831Z,10.20
2022-08-28T10:01:47.732Z,10.20
2022-08-28T10:04:29.110Z,9.70
2022-08-28T10:07:30.517Z,8.60
2022-08-28T10:10:35.975Z,9.20
2022-08-28T10:13:10.971Z,10.60
2022-08-28T10:15:44.040Z,9.10
2022-08-28T10:18:47.217Z,10.10
2022-08-28T10:21:41.108Z,9.50
2022-08-28T10:24:34.618Z,9.60
2022-08-28T10:27:57.285Z,10.00
2022-08-28T10:30:29.854Z,9.40
2022-08-28T10:33:22.138Z,8.90
2022-08-28T10:36:03.898Z,10.20
2022-08-28T10:38:50.822Z,9.90
2022-08-28T10:41:26.146Z,9.10
2022-08-28T10:43:55.370Z,9.40
2022-08-28T10:46:35.751Z,9.50
2022-08-28T10:49:13.331Z,9.70
2022-08-28T10:51:58.594Z,9.60
2022-08-28T10:55:04.968Z,9.30
2022-08-28T10:57:39.554Z,9.90
2022-08-28T11:00:16.745Z,10.60
2022-08-28T11:02:55.040Z,9.80
2022-08-28T11:05:27.782Z,10.50
2022-08-28T11:08:07.042Z,9.20
2022-08-28T11:10:35.106Z,11.10
2022-08-28T11:13:10.418Z,10.80
2022-08-28T11:15:45.881Z,10.10
2022-08-28T11:18:16.231Z,10.70
2022-08-28T11:20:58.310Z,10.20
2022-08-28T11:23:57.635Z,10.60
2022-08-28T11:26:58.944Z,11.20
2022-08-28T11:30:31.355Z,11.30
2022-08-28T11:33:04.236Z,10.80
2022-08-28T11:35:49.728Z,11.00
2022-08-28T11:38:42.700Z,11.20
2022-08-28T11:41:41.988Z,10.30
2022-08-28T11:44:11.323Z,10.70
2022-08-28T11:46:43.655Z,10.00
2022-08-28T11:49:26.824Z,10.40
2022-08-28T11:58:41.901Z,10.70
2022-08-28T12:01:14.516Z,10.20
2022-08-28T12:04:08.122Z,10.20
2022-08-28T12:06:45.454Z,11.30
2022-08-28T12:09:50.007Z,10.50
2022-08-28T12:12:20.751Z,10.40
2022-08-28T12:14:48.563Z,10.90
2022-08-28T12:17:31.196Z,10.40
2022-08-28T12:20:11.309Z,11.40
2022-08-28T12:22:50.374Z,11.00
2022-08-28T12:25:46.906Z,11.30
2022-08-28T12:28:44.333Z,11.70
2022-08-28T12:31:57.390Z,11.20
2022-08-28T12:37:04.300Z,9.70
2022-08-28T12:39:32.764Z,9.60
2022-08-28T12:42:03.770Z,9.60
2022-08-28T12:44:33.378Z,9.60
2022-08-28T12:47:01.360Z,9.30
2022-08-28T12:49:37.278Z,8.00
2022-08-28T12:52:12.278Z,7.60
2022-08-28T12:54:46.648Z,9.30
2022-08-28T12:57:20.784Z,7.50
2022-08-28T12:59:55.629Z,8.60
2022-08-28T13:02:34.256Z,7.90
2022-08-28T13:05:08.360Z,7.70
2022-08-28T13:07:41.854Z,7.40
2022-08-28T13:10:30.064Z,6.90
2022-08-28T13:13:07.711Z,6.00
2022-08-28T13:16:04.189Z,7.30
2022-08-28T13:18:44.346Z,6.50
2022-08-28T13:21:32.566Z,6.00
2022-08-28T13:24:21.362Z,5.30
2022-08-28T13:27:12.870Z,5.90
2022-08-28T13:29:52.489Z,5.80
2022-08-28T13:32:26.189Z,6.80
2022-08-28T13:35:13.084Z,6.40
2022-08-28T13:37:48.879Z,6.30
2022-08-28T13:40:55.658Z,5.70
2022-08-28T13:43:11.910Z,6.60
2022-08-28T13:45:46.243Z,5.40
2022-08-28T13:48:23.679Z,6.10
2022-08-28T13:51:03.554Z,6.20
2022-08-28T13:53:33.126Z,5.80
2022-08-28T13:56:00.997Z,5.60
2022-08-28T13:58:29.261Z,5.40
2022-08-28T14:00:57.504Z,6.20
2022-08-28T14:03:41.301Z,5.10
2022-08-28T14:06:16.854Z,6.70
2022-08-28T14:08:46.705Z,6.50
2022-08-28T14:11:15.853Z,6.70
2022-08-28T14:13:47.231Z,6.90
2022-08-28T14:16:25.650Z,6.50
2022-08-28T14:18:53.941Z,7.00
2022-08-28T14:21:24.624Z,6.70
2022-08-28T14:23:53.011Z,6.90
2022-08-28T14:26:20.964Z,6.80
2022-08-28T14:28:48.758Z,6.40
2022-08-28T14:31:16.981Z,7.20
2022-08-28T14:33:45.097Z,7.40
2022-08-28T14:36:22.420Z,7.00
2022-08-28T14:38:54.266Z,7.90
2022-08-28T14:41:24.196Z,7.50
2022-08-28T14:43:53.443Z,7.70
2022-08-28T14:46:31.609Z,7.60
2022-08-28T14:49:04.065Z,7.70
2022-08-28T14:51:35.075Z,7.40
2022-08-28T14:54:03.281Z,7.20
2022-08-28T14:56:32.833Z,7.20
2022-08-28T14:59:02.717Z,8.00
2022-08-28T15:01:40.499Z,6.60
2022-08-28T15:04:14.252Z,6.80
2022-08-28T15:06:43.272Z,6.40
2022-08-28T15:09:13.503Z,6.30
2022-08-28T15:11:42.339Z,6.10
2022-08-28T15:14:11.280Z,5.80
2022-08-28T15:16:45.850Z,6.10
2022-08-28T15:19:18.088Z,5.40
2022-08-28T15:21:55.308Z,5.70
2022-08-28T15:24:35.765Z,5.80
2022-08-28T15:27:03.833Z,5.30
2022-08-28T15:29:31.677Z,5.10
2022-08-28T15:32:00.733Z,6.10
2022-08-28T15:34:28.930Z,5.90
2022-08-28T15:36:58.474Z,5.90
2022-08-28T15:39:47.521Z,5.90
2022-08-28T15:42:15.814Z,5.30
2022-08-28T15:44:44.421Z,5.60
2022-08-28T15:47:13.864Z,5.40
2022-08-28T15:49:43.545Z,6.00
2022-08-28T15:52:21.278Z,6.10
2022-08-28T15:57:17.781Z,5.20
2022-08-28T15:59:49.532Z,5.20
2022-08-28T16:02:21.768Z,4.60
2022-08-28T16:04:50.456Z,4.50
2022-08-28T16:07:20.477Z,4.40
2022-08-28T16:09:49.237Z,4.00
2022-08-28T16:12:17.705Z,3.90
2022-08-28T16:14:45.562Z,4.90
2022-08-28T16:17:14.111Z,4.90
2022-08-28T16:19:43.119Z,4.60
2022-08-28T16:22:12.923Z,5.40
2022-08-28T16:24:40.731Z,3.50
2022-08-28T16:27:13.244Z,4.30
2022-08-28T16:29:46.429Z,3.90
2022-08-28T16:32:17.862Z,3.90
2022-08-28T16:34:45.748Z,4.10
2022-08-28T16:37:18.552Z,3.40
2022-08-28T16:39:47.600Z,3.20
2022-08-28T16:42:15.648Z,3.50
2022-08-28T16:44:43.502Z,3.50
2022-08-28T16:47:11.348Z,3.10
2022-08-28T16:49:40.362Z,3.60
2022-08-28T16:52:08.223Z,3.80
2022-08-28T16:54:36.070Z,4.10
2022-08-28T16:57:03.962Z,5.30
2022-08-28T16:59:31.819Z,5.10
2022-08-28T17:01:59.960Z,5.60
2022-08-28T17:04:27.879Z,5.50
2022-08-28T17:06:56.307Z,6.10
2022-08-28T17:09:24.667Z,6.70
2022-08-28T17:11:53.578Z,6.60
2022-08-28T17:14:22.116Z,6.40
2022-08-28T17:16:51.455Z,6.90
2022-08-28T17:19:20.917Z,7.30
2022-08-28T17:22:07.565Z,7.80
2022-08-28T17:24:35.941Z,7.80
2022-08-28T17:27:05.848Z,7.30
2022-08-28T17:29:36.454Z,7.90
2022-08-28T17:32:07.809Z,8.10
2022-08-28T17:34:37.554Z,7.80
2022-08-28T17:37:05.911Z,7.40
2022-08-28T17:39:33.803Z,6.80
2022-08-28T17:42:01.695Z,6.70
2022-08-28T17:44:30.755Z,6.90
2022-08-28T17:46:58.541Z,8.10
2022-08-28T17:49:27.018Z,6.50
2022-08-28T17:51:55.071Z,6.70
2022-08-28T17:54:24.339Z,6.60
2022-08-28T17:56:54.603Z,6.20
2022-08-28T17:59:24.747Z,6.40
2022-08-28T18:01:58.174Z,7.20
2022-08-28T18:04:44.742Z,6.10
2022-08-28T18:07:12.960Z,5.90
2022-08-28T18:09:41.201Z,6.20
2022-08-28T18:12:12.587Z,5.80
2022-08-28T18:14:41.289Z,5.70
2022-08-28T18:17:10.863Z,6.20
2022-08-28T18:19:40.197Z,6.00
2022-08-28T18:22:14.863Z,5.10
2022-08-28T18:24:46.786Z,5.70
2022-08-28T18:27:14.743Z,5.50
2022-08-28T18:29:42.609Z,5.10
2022-08-28T18:32:13.435Z,5.40
2022-08-28T18:34:41.528Z,5.80
2022-08-28T18:37:09.663Z,5.70
2022-08-28T18:39:39.240Z,5.30
2022-08-28T18:42:07.700Z,5.50
2022-08-28T18:44:37.050Z,6.30
2022-08-28T18:47:07.353Z,5.50
2022-08-28T18:49:35.294Z,5.30
2022-08-28T18:52:04.509Z,4.90
2022-08-28T18:54:37.762Z,5.70
2022-08-28T18:57:09.063Z,5.60
2022-08-28T18:59:45.039Z,6.00
2022-08-28T19:02:18.109Z,5.80
2022-08-28T19:04:49.295Z,5.40
2022-08-28T19:07:17.325Z,5.70
2022-08-28T19:09:45.537Z,5.30
2022-08-28T19:12:13.505Z,6.60
2022-08-28T19:14:44.338Z,5.60
2022-08-28T19:17:12.333Z,5.70
2022-08-28T19:19:40.515Z,6.20
2022-08-28T19:22:08.591Z,5.80
2022-08-28T19:24:36.559Z,6.30
2022-08-28T19:27:05.121Z,6.10
2022-08-28T19:29:33.093Z,5.90
2022-08-28T19:32:01.167Z,6.60
2022-08-28T19:34:32.676Z,6.80
2022-08-28T19:37:01.650Z,6.10
2022-08-28T19:39:32.760Z,7.30
2022-08-28T19:42:05.573Z,6.90
2022-08-28T19:44:33.672Z,6.70
2022-08-28T19:47:02.136Z,7.20
2022-08-28T19:49:30.477Z,7.90
2022-08-28T19:52:01.325Z,7.00
2022-08-28T19:54:32.179Z,7.00
2022-08-28T19:57:00.008Z,7.20
2022-08-28T19:59:28.142Z,7.20
2022-08-28T20:02:03.588Z,9.50
2022-08-28T20:04:38.865Z,8.50
2022-08-28T20:07:09.103Z,7.50
2022-08-28T20:09:39.319Z,8.00
2022-08-28T20:12:07.472Z,7.70
2022-08-28T20:14:48.635Z,7.60
2022-08-28T20:17:18.854Z,7.50
2022-08-28T20:19:47.762Z,7.10
2022-08-28T20:22:15.896Z,9.00
2022-08-28T20:24:44.205Z,7.30
2022-08-28T20:27:12.069Z,8.10
2022-08-28T20:29:40.001Z,7.70
2022-08-28T20:32:07.785Z,7.40
2022-08-28T20:34:35.769Z,8.70
2022-08-28T20:37:04.306Z,10.40
2022-08-28T20:39:32.139Z,8.50
2022-08-28T20:42:00.054Z,8.20
2022-08-28T20:44:27.855Z,8.50
2022-08-28T20:46:55.688Z,8.90
2022-08-28T20:49:23.908Z,8.90
2022-08-28T20:51:59.046Z,9.80
2022-08-28T20:54:34.011Z,11.40
2022-08-28T20:57:09.535Z,11.50
2022-08-28T20:59:40.799Z,11.20
2022-08-28T21:02:19.422Z,10.80
2022-08-28T21:04:47.857Z,10.70
2022-08-28T21:07:18.850Z,11.70
2022-08-28T21:10:05.589Z,12.00
2022-08-28T21:12:39.032Z,12.10
2022-08-28T21:15:10.880Z,11.60
2022-08-28T21:17:40.277Z,12.40
2022-08-28T21:20:13.284Z,11.50
2022-08-28T21:22:42.217Z,11.20
2022-08-28T21:25:10.890Z,11.20
2022-08-28T21:27:40.277Z,12.80
2022-08-28T21:30:12.933Z,11.30
2022-08-28T21:32:40.766Z,11.20
2022-08-28T21:35:11.133Z,11.90
2022-08-28T21:37:41.343Z,11.40
2022-08-28T21:40:12.326Z,11.60
2022-08-28T21:42:40.550Z,10.60
2022-08-28T21:45:12.048Z,10.20
2022-08-28T21:47:41.936Z,10.40
2022-08-28T21:50:11.015Z,9.60
2022-08-28T21:52:39.116Z,9.70
2022-08-28T21:55:14.965Z,9.90
2022-08-28T21:57:43.164Z,9.10
2022-08-28T22:00:23.743Z,8.80
2022-08-28T22:02:52.035Z,7.50
2022-08-28T22:05:20.680Z,7.10
2022-08-28T22:07:53.833Z,7.20
2022-08-28T22:10:23.213Z,7.10
2022-08-28T22:12:51.612Z,7.10
2022-08-28T22:15:19.622Z,7.50
2022-08-28T22:17:47.714Z,6.70
2022-08-28T22:20:16.146Z,6.90
2022-08-28T22:23:02.763Z,6.50
2022-08-28T22:25:31.034Z,6.60
2022-08-28T22:27:59.716Z,6.80
2022-08-28T22:30:27.719Z,7.20
2022-08-28T22:32:55.687Z,6.60
2022-08-28T22:35:23.548Z,6.40
2022-08-28T22:37:54.013Z,6.70
2022-08-28T22:40:23.037Z,6.50
2022-08-28T22:42:51.337Z,6.70
2022-08-28T22:45:20.433Z,6.50
2022-08-28T22:47:49.789Z,6.50
2022-08-28T22:50:17.909Z,6.40
2022-08-28T22:52:49.997Z,7.30
2022-08-28T22:55:20.930Z,7.10
2022-08-28T22:57:50.072Z,6.90
2022-08-28T23:00:24.050Z,7.40
2022-08-28T23:02:56.512Z,6.90
2022-08-28T23:05:26.984Z,7.80
2022-08-28T23:07:55.603Z,7.40
2022-08-28T23:10:36.939Z,7.90
2022-08-28T23:13:14.504Z,7.80
2022-08-28T23:15:44.007Z,7.20
2022-08-28T23:18:11.944Z,7.60
2022-08-28T23:20:40.497Z,7.60
2022-08-28T23:23:08.948Z,6.90
2022-08-28T23:25:37.015Z,7.60
2022-08-28T23:28:06.552Z,6.80
2022-08-28T23:30:39.158Z,6.70
2022-08-28T23:33:08.839Z,7.90
2022-08-28T23:35:37.303Z,7.90
2022-08-28T23:38:05.766Z,6.80
2022-08-28T23:40:34.075Z,6.20
2022-08-28T23:43:04.319Z,6.60
2022-08-28T23:45:32.671Z,6.70
2022-08-28T23:48:01.495Z,6.30
2022-08-28T23:50:30.489Z,6.00
2022-08-28T23:52:58.729Z,5.60
2022-08-28T23:55:27.016Z,5.70
2022-08-28T23:57:55.952Z,6.20
